Terminal Aerodrome Forecast
Issued by NWS North Platte, NE

Home | Current Version | Previous Version | Graphics & Text | Print | Product List | Glossary On
Versions: 1 2 3 4 5 6 7 8 9 10 11 12 13 14 15 16 17 18 19 20 21 22
682
FTUS43 KLBF 261721
TAFVTN
TAF
KVTN 261721Z 2618/2718 19014G21KT P6SM SCT040 BKN150
      TEMPO 2618/2620 27012KT
     FM262000 19014G22KT P6SM FEW070 SCT200
     FM270000 15012G18KT P6SM VCTS BKN060CB BKN120
      TEMPO 2701/2705 VRB25G40KT 4SM TSRA BKN040CB OVC120
     FM270500 14012KT P6SM -SHRA BKN070 OVC150
     FM270800 36009KT P6SM BKN150
     FM271100 36009KT P6SM BKN015 OVC150
     FM271600 36010KT P6SM SCT015 BKN150=

USA.gov is the U.S. government's official web portal to all federal, state and local government web resources and services.